Time;durP1;ratioP1;P1;durP2;ratioP2;P2;SDS_P1;SDS_P2;PMS_P1;PMS_P2;Temp;Humidity;BMP_temperature;BMP_pressure;BME280_temperature;BME280_humidity;BME280_pressure;Samples;Min_cycle;Max_cycle;Signal;HPM_P1;HPM_P2
2021/01/13 00:03:14;;;;;;;19.70;13.03;;;;;;;-0.68;87.26;98067.84;493044;1144;65564;-65
2021/01/13 00:13:18;;;;;;;14.40;10.48;;;;;;;-0.69;87.54;98084.19;493402;1144;65156;-64
2021/01/13 00:23:22;;;;;;;12.55;9.45;;;;;;;-0.71;86.60;98087.67;493123;1144;65126;-64
2021/01/13 00:33:26;;;;;;;12.25;9.45;;;;;;;-0.77;87.40;98103.41;493136;1144;65126;-64
2021/01/13 00:43:30;;;;;;;12.05;8.20;;;;;;;-0.85;86.87;98106.31;493376;1145;65144;-65
2021/01/13 00:53:34;;;;;;;8.10;6.77;;;;;;;-0.82;87.88;98131.09;492913;1144;65370;-64
2021/01/13 01:03:39;;;;;;;10.65;7.40;;;;;;;-0.90;87.40;98149.45;492486;1144;65117;-64
2021/01/13 01:13:43;;;;;;;11.25;8.20;;;;;;;-1.02;87.42;98155.10;492879;1144;65541;-64
2021/01/13 01:23:47;;;;;;;8.63;6.50;;;;;;;-1.19;85.37;98171.23;493019;1144;65111;-59
2021/01/13 01:33:51;;;;;;;5.00;4.20;;;;;;;-1.33;84.75;98182.05;493246;1144;65148;-60
2021/01/13 01:43:55;;;;;;;6.53;4.30;;;;;;;-1.43;84.60;98207.32;495513;1144;65108;-61
2021/01/13 01:54:15;;;;;;;7.37;5.47;;;;;;;-1.48;84.35;98204.09;493945;1145;65241;-61
2021/01/13 02:04:29;;;;;;;8.23;6.10;;;;;;;-1.62;84.61;98205.41;493775;1145;65423;-60
2021/01/13 02:14:40;;;;;;;8.80;5.73;;;;;;;-1.72;84.63;98201.52;493100;1147;65191;-60
2021/01/13 02:25:32;;;;;;;11.23;6.40;;;;;;;-1.74;84.55;98203.28;493249;1146;65127;-61
2021/01/13 02:35:58;;;;;;;8.33;6.13;;;;;;;-1.72;83.99;98217.78;492739;1146;65884;-60
2021/01/13 02:46:16;;;;;;;9.88;5.78;;;;;;;-1.77;83.60;98213.70;493211;1147;65197;-61
2021/01/13 02:56:52;;;;;;;9.67;6.50;;;;;;;-1.74;84.61;98224.73;493943;1147;65143;-59
2021/01/13 03:07:05;;;;;;;12.00;8.35;;;;;;;-1.75;84.63;98241.07;493053;1146;65223;-61
2021/01/13 03:17:37;;;;;;;12.00;8.40;;;;;;;-1.73;84.09;98238.42;493185;1145;65140;-60
2021/01/13 03:27:44;;;;;;;9.27;6.53;;;;;;;-1.70;84.72;98253.78;493639;1146;65139;-60
2021/01/13 03:38:11;;;;;;;8.83;6.87;;;;;;;-1.62;84.17;98258.65;493709;1146;65208;-60
2021/01/13 03:48:28;;;;;;;;;;;;;;;-1.80;84.83;98250.67;493254;1147;65148;-60
2021/01/13 03:58:49;;;;;;;10.43;6.63;;;;;;;-1.80;84.51;98257.56;493099;1145;65641;-60
2021/01/13 04:08:54;;;;;;;9.13;6.40;;;;;;;-1.85;85.12;98258.58;493572;1144;65216;-60
2021/01/13 04:18:59;;;;;;;12.83;8.13;;;;;;;-1.74;84.98;98268.48;492891;1144;65236;-61
2021/01/13 04:29:05;;;;;;;9.30;7.27;;;;;;;-1.67;85.27;98263.95;492877;1144;65124;-60
2021/01/13 04:39:10;;;;;;;13.30;7.97;;;;;;;-1.72;84.94;98264.11;493634;1144;65207;-62
2021/01/13 04:49:19;;;;;;;11.30;8.53;;;;;;;-1.64;85.66;98268.98;493449;1144;65597;-60
2021/01/13 04:59:57;;;;;;;13.87;9.13;;;;;;;-1.61;85.70;98271.48;493057;1145;65137;-61
2021/01/13 05:10:07;;;;;;;13.47;8.97;;;;;;;-1.65;86.13;98271.64;493801;1144;65159;-60
2021/01/13 05:20:25;;;;;;;13.57;8.37;;;;;;;-1.67;86.23;98287.13;493640;1144;65539;-59
2021/01/13 05:30:31;;;;;;;18.50;11.43;;;;;;;-1.62;86.11;98305.80;493104;1145;65124;-60
2021/01/13 05:40:42;;;;;;;16.42;10.50;;;;;;;-1.64;86.37;98319.64;493529;1144;65542;-60
2021/01/13 05:50:47;;;;;;;9.70;7.03;;;;;;;-1.65;86.23;98329.09;493137;1144;65201;-59
2021/01/13 06:00:55;;;;;;;10.23;7.20;;;;;;;-1.71;86.22;98343.01;493381;1146;65137;-60
2021/01/13 06:11:02;;;;;;;7.37;5.33;;;;;;;-1.70;86.55;98349.83;493432;1144;65138;-60
2021/01/13 06:21:14;;;;;;;6.17;5.17;;;;;;;-1.65;86.36;98366.88;492970;1144;65121;-60
2021/01/13 06:31:23;;;;;;;10.73;4.87;;;;;;;-1.63;86.21;98381.35;493543;1145;65194;-59
2021/01/13 06:41:28;;;;;;;7.20;3.17;;;;;;;-1.65;86.06;98387.47;493226;1143;65144;-60
2021/01/13 06:51:35;;;;;;;6.00;3.70;;;;;;;-1.66;85.60;98390.94;493617;1144;65417;-58
2021/01/13 07:01:49;;;;;;;6.47;3.10;;;;;;;-1.64;86.04;98407.17;493455;1144;65137;-61
2021/01/13 07:11:54;;;;;;;4.27;3.27;;;;;;;-1.54;86.07;98426.56;492898;1145;65163;-60
2021/01/13 07:22:03;;;;;;;7.00;4.17;;;;;;;-1.45;85.96;98439.11;493045;1144;65107;-59
2021/01/13 07:32:09;;;;;;;7.60;4.13;;;;;;;-1.28;85.64;98443.69;493502;1145;65115;-59
2021/01/13 07:42:32;;;;;;;7.10;4.12;;;;;;;-1.23;85.34;98451.27;493586;1143;65120;-59
2021/01/13 07:52:43;;;;;;;10.45;4.60;;;;;;;-1.24;85.02;98469.37;492936;1144;65773;-60
2021/01/13 08:03:40;;;;;;;7.03;3.90;;;;;;;-1.33;84.89;98498.83;492824;1144;65129;-60
2021/01/13 08:14:14;;;;;;;9.77;6.10;;;;;;;-1.28;85.01;98505.51;493724;1145;65108;-62
2021/01/13 08:24:25;;;;;;;8.70;4.77;;;;;;;-1.07;85.15;98504.86;493180;1144;65867;-59
2021/01/13 08:34:36;;;;;;;9.10;4.15;;;;;;;-0.81;84.80;98503.12;493185;1144;65545;-60
2021/01/13 08:44:41;;;;;;;8.00;5.20;;;;;;;-0.47;84.40;98513.06;484394;1143;10002068;-61
2021/01/13 08:55:07;;;;;;;10.83;4.40;;;;;;;-0.40;83.43;98508.55;493017;1142;65162;-59
2021/01/13 09:05:27;;;;;;;7.07;4.60;;;;;;;-0.38;83.25;98519.64;493060;1145;65119;-59
2021/01/13 09:15:33;;;;;;;9.20;6.20;;;;;;;-0.48;83.06;98532.01;492992;1144;65207;-61
2021/01/13 09:25:49;;;;;;;8.60;5.93;;;;;;;-0.45;83.97;98523.33;493189;1144;66469;-60
2021/01/13 09:36:00;;;;;;;15.87;9.93;;;;;;;-0.50;83.69;98514.93;493181;1143;65112;-60
2021/01/13 09:46:06;;;;;;;10.03;8.20;;;;;;;-0.40;83.63;98524.02;492864;1144;65171;-64
2021/01/13 09:56:13;;;;;;;11.03;9.20;;;;;;;-0.39;83.95;98523.13;492895;1144;65126;-65
2021/01/13 10:06:18;;;;;;;;;;;;;;;-0.29;84.34;98527.05;493646;1145;65129;-62
2021/01/13 10:16:46;;;;;;;9.43;6.87;;;;;;;-0.10;84.15;98517.78;493493;1146;65150;-66
2021/01/13 10:26:51;;;;;;;14.80;10.63;;;;;;;0.19;83.21;98510.65;493268;1145;65179;-63
2021/01/13 10:36:58;;;;;;;14.30;10.35;;;;;;;0.45;83.04;98501.03;493606;1145;65258;-63
2021/01/13 10:47:05;;;;;;;14.90;10.53;;;;;;;0.55;83.36;98500.61;492896;1145;65213;-65
2021/01/13 10:57:11;;;;;;;12.43;8.80;;;;;;;0.59;82.54;98500.48;492839;1145;65904;-65
2021/01/13 11:07:23;;;;;;;19.23;9.93;;;;;;;0.47;82.89;98487.16;492812;1144;65215;-65
2021/01/13 11:17:29;;;;;;;12.60;9.17;;;;;;;0.50;82.58;98475.88;493943;1144;65304;-64
2021/01/13 11:27:37;;;;;;;13.60;9.60;;;;;;;0.53;82.52;98468.84;494220;1144;65119;-65
2021/01/13 11:38:05;;;;;;;20.17;11.93;;;;;;;0.42;82.32;98465.86;492825;1144;65196;-61
2021/01/13 11:48:15;;;;;;;17.20;11.77;;;;;;;0.34;82.54;98455.81;492556;1144;65184;-65
2021/01/13 11:58:21;;;;;;;14.70;10.65;;;;;;;0.58;82.80;98460.91;493173;1144;65606;-61
2021/01/13 12:08:31;;;;;;;15.93;9.60;;;;;;;0.50;83.28;98458.61;493294;1144;65200;-60
2021/01/13 12:18:53;;;;;;;16.23;11.23;;;;;;;0.23;83.52;98457.98;493432;1144;65193;-61
2021/01/13 12:29:13;;;;;;;14.43;11.33;;;;;;;0.07;83.71;98474.09;491678;1144;65164;-63
2021/01/13 12:39:26;;;;;;;16.97;10.57;;;;;;;0.01;84.13;98468.33;485100;1144;10001406;-64
2021/01/13 12:49:32;;;;;;;14.87;10.50;;;;;;;-0.07;83.87;98477.19;492524;1144;65144;-66
2021/01/13 12:59:36;;;;;;;17.40;12.03;;;;;;;0.08;83.48;98477.52;492498;1144;65623;-66
2021/01/13 13:09:42;;;;;;;13.95;10.05;;;;;;;0.11;83.88;98482.56;493122;1144;65137;-61
2021/01/13 13:19:49;;;;;;;13.20;10.32;;;;;;;0.08;84.02;98480.93;493531;1144;65207;-61
2021/01/13 13:29:53;;;;;;;15.80;9.70;;;;;;;0.08;83.68;98496.41;493063;1144;65185;-69
2021/01/13 13:39:57;;;;;;;11.60;7.40;;;;;;;0.02;83.29;98485.48;492624;1144;65569;-60
2021/01/13 13:50:13;;;;;;;8.13;7.03;;;;;;;0.01;83.44;98488.97;494814;1145;65222;-62
2021/01/13 14:00:21;;;;;;;12.33;7.97;;;;;;;-0.03;83.23;98495.98;493041;1145;65344;-62
2021/01/13 14:10:23;;;;;;;;;;;;;;;-0.07;84.08;98490.09;493291;1144;65214;-61
2021/01/13 14:20:29;;;;;;;11.10;7.77;;;;;;;-0.08;83.63;98501.32;493131;1144;65554;-62
2021/01/13 14:30:41;;;;;;;13.70;8.77;;;;;;;-0.29;83.34;98492.66;493504;1144;65207;-58
2021/01/13 14:40:46;;;;;;;11.30;8.50;;;;;;;-0.41;84.02;98481.05;493536;1144;65503;-60
2021/01/13 14:50:50;;;;;;;15.43;9.50;;;;;;;-0.52;84.53;98478.02;493654;1145;65193;-61
2021/01/13 15:00:55;;;;;;;13.27;8.90;;;;;;;-0.52;84.16;98470.28;493087;1144;65152;-65
2021/01/13 15:11:00;;;;;;;15.35;10.90;;;;;;;-0.57;83.71;98467.90;493231;1144;65230;-64
2021/01/13 15:21:14;;;;;;;17.67;11.63;;;;;;;-0.55;84.35;98475.56;493593;1144;65117;-65
2021/01/13 15:31:18;;;;;;;13.60;10.80;;;;;;;-0.62;84.87;98465.48;492967;1144;65587;-64
2021/01/13 15:41:23;;;;;;;19.53;13.90;;;;;;;-0.72;84.78;98459.80;493364;1144;65140;-65
2021/01/13 15:51:29;;;;;;;16.60;11.75;;;;;;;-0.70;84.40;98452.02;493726;1144;65123;-65
2021/01/13 16:01:35;;;;;;;21.80;12.73;;;;;;;-0.69;84.39;98440.81;493554;1144;65128;-67
2021/01/13 16:11:44;;;;;;;16.07;11.28;;;;;;;-0.68;85.36;98437.33;493718;1144;65137;-62
2021/01/13 16:21:50;;;;;;;16.47;12.00;;;;;;;-0.66;84.75;98437.28;485097;1145;10004046;-61
2021/01/13 16:31:56;;;;;;;15.70;10.90;;;;;;;-0.65;85.54;98437.21;495580;1144;65195;-61
2021/01/13 16:42:08;;;;;;;16.93;11.23;;;;;;;-0.63;85.10;98432.01;493035;1145;65187;-60
2021/01/13 16:52:15;;;;;;;15.30;10.47;;;;;;;-0.63;85.13;98434.59;492885;1144;65163;-64
2021/01/13 17:02:19;;;;;;;18.43;10.37;;;;;;;-0.70;85.39;98433.97;493222;1144;65281;-68
2021/01/13 17:12:25;;;;;;;16.43;12.33;;;;;;;-0.72;85.27;98423.70;493358;1144;65155;-52
2021/01/13 17:22:35;;;;;;;14.90;9.43;;;;;;;-0.68;84.92;98408.97;492990;1144;65207;-62
2021/01/13 17:32:40;;;;;;;16.00;11.73;;;;;;;-0.69;85.94;98404.72;493314;1144;65188;-62
2021/01/13 17:42:48;;;;;;;18.00;13.53;;;;;;;-0.74;85.13;98402.30;492776;1144;65194;-61
2021/01/13 17:52:55;;;;;;;21.63;14.47;;;;;;;-0.77;85.14;98398.99;493111;1144;65111;-62
2021/01/13 18:03:01;;;;;;;35.70;16.97;;;;;;;-0.71;85.91;98397.03;492576;1144;65207;-59
2021/01/13 18:13:05;;;;;;;38.13;22.17;;;;;;;-0.69;85.19;98380.66;492684;1144;65194;-60
2021/01/13 18:23:14;;;;;;;29.70;18.20;;;;;;;-0.66;85.51;98376.23;492867;1144;65139;-62
2021/01/13 18:33:18;;;;;;;33.27;20.27;;;;;;;-0.63;86.00;98364.97;493034;1144;65598;-60
2021/01/13 18:43:23;;;;;;;45.10;26.47;;;;;;;-0.58;85.55;98370.78;493150;1144;65217;-61
2021/01/13 18:53:30;;;;;;;30.27;18.67;;;;;;;-0.61;85.62;98358.87;493646;1144;65216;-61
2021/01/13 19:03:34;;;;;;;45.60;23.33;;;;;;;-0.62;85.12;98344.30;493458;1144;65131;-62
2021/01/13 19:13:42;;;;;;;38.57;22.87;;;;;;;-0.65;85.07;98341.81;492418;1144;65188;-64
2021/01/13 19:23:46;;;;;;;60.30;30.77;;;;;;;-0.63;85.29;98334.88;492312;1144;65180;-65
2021/01/13 19:33:50;;;;;;;38.60;22.33;;;;;;;-0.63;85.34;98324.57;492618;1144;65182;-64
2021/01/13 19:43:54;;;;;;;44.17;26.17;;;;;;;-0.63;86.07;98311.68;492585;1144;65240;-61
2021/01/13 19:53:58;;;;;;;35.07;20.63;;;;;;;-0.66;85.82;98306.62;493190;1144;65144;-63
2021/01/13 20:04:06;;;;;;;37.45;22.45;;;;;;;-0.62;85.70;98295.31;492978;1143;65194;-70
2021/01/13 20:14:14;;;;;;;29.33;17.53;;;;;;;-0.59;86.20;98278.86;493087;1144;65146;-69
2021/01/13 20:24:18;;;;;;;34.93;22.50;;;;;;;-0.54;85.77;98279.53;492489;1144;65239;-61
2021/01/13 20:34:25;;;;;;;61.83;30.63;;;;;;;-0.54;85.83;98265.78;492502;1144;65127;-59
2021/01/13 20:44:31;;;;;;;37.60;19.43;;;;;;;-0.58;85.71;98263.34;492599;1144;65112;-61
2021/01/13 20:54:38;;;;;;;49.77;23.90;;;;;;;-0.57;85.71;98267.59;492556;1144;66461;-59
2021/01/13 21:04:43;;;;;;;39.37;23.43;;;;;;;-0.57;85.39;98265.02;493220;1144;65603;-60
2021/01/13 21:14:47;;;;;;;30.57;18.43;;;;;;;-0.52;86.56;98257.09;492853;1144;65579;-59
2021/01/13 21:24:53;;;;;;;;;;;;;;;-0.50;86.20;98237.23;492750;1144;65507;-59
2021/01/13 21:34:57;;;;;;;50.63;29.40;;;;;;;-0.42;85.73;98236.92;492985;1143;65790;-59
2021/01/13 21:45:01;;;;;;;38.07;24.80;;;;;;;-0.44;85.62;98216.37;493125;1144;65532;-60
2021/01/13 21:55:08;;;;;;;42.60;27.73;;;;;;;-0.46;85.97;98199.27;492576;1145;65124;-60
2021/01/13 22:05:11;;;;;;;;;;;;;;;-0.48;86.15;98196.75;493306;1144;65578;-60
2021/01/13 22:15:15;;;;;;;43.73;29.90;;;;;;;-0.48;85.38;98196.75;492303;1144;65141;-60
2021/01/13 22:25:19;;;;;;;43.13;26.83;;;;;;;-0.49;86.00;98184.75;492582;1142;65133;-60
2021/01/13 22:35:25;;;;;;;41.93;24.93;;;;;;;-0.46;86.20;98178.64;492611;1144;65140;-60
2021/01/13 22:45:31;;;;;;;43.25;25.40;;;;;;;-0.43;86.84;98171.62;492768;1143;65304;-61
2021/01/13 22:55:35;;;;;;;42.33;26.30;;;;;;;-0.41;86.09;98165.55;493091;1144;65147;-59
2021/01/13 23:05:40;;;;;;;31.55;21.00;;;;;;;-0.40;86.26;98152.61;492400;1142;65895;-60
2021/01/13 23:15:47;;;;;;;34.53;22.70;;;;;;;-0.43;85.39;98137.23;493468;1144;65563;-60
2021/01/13 23:25:50;;;;;;;;;;;;;;;-0.48;85.41;98128.88;492394;1144;65190;-60
2021/01/13 23:35:55;;;;;;;31.67;20.67;;;;;;;-0.48;85.93;98113.40;493269;1143;65213;-61
2021/01/13 23:46:01;;;;;;;39.03;22.33;;;;;;;-0.48;86.51;98110.82;493226;1144;65121;-59
2021/01/13 23:56:05;;;;;;;32.27;19.40;;;;;;;-0.50;86.93;98107.48;492565;1145;65137;-59
